sensor_id;sensor_type;location;lat;lon;timestamp;P1;durP1;ratioP1;P2;durP2;ratioP2
68438;SDS011;55421;51.600;5.718;2022-12-31T00:02:01;6.20;;;2.00;;
68438;SDS011;55421;51.600;5.718;2022-12-31T00:04:28;3.20;;;1.40;;
68438;SDS011;55421;51.600;5.718;2022-12-31T00:06:54;1.30;;;1.20;;
68438;SDS011;55421;51.600;5.718;2022-12-31T00:09:21;1.30;;;1.10;;
68438;SDS011;55421;51.600;5.718;2022-12-31T00:11:47;1.10;;;1.10;;
68438;SDS011;55421;51.600;5.718;2022-12-31T00:14:14;1.80;;;1.10;;
68438;SDS011;55421;51.600;5.718;2022-12-31T00:16:41;1.40;;;1.30;;
68438;SDS011;55421;51.600;5.718;2022-12-31T00:19:10;1.40;;;1.00;;
68438;SDS011;55421;51.600;5.718;2022-12-31T00:21:37;1.60;;;1.10;;
68438;SDS011;55421;51.600;5.718;2022-12-31T00:24:05;1.00;;;1.00;;
68438;SDS011;55421;51.600;5.718;2022-12-31T00:26:33;1.80;;;1.00;;
68438;SDS011;55421;51.600;5.718;2022-12-31T00:29:02;1.10;;;1.00;;
68438;SDS011;55421;51.600;5.718;2022-12-31T00:31:32;2.50;;;1.10;;
68438;SDS011;55421;51.600;5.718;2022-12-31T00:34:00;1.40;;;1.00;;
68438;SDS011;55421;51.600;5.718;2022-12-31T00:36:33;2.20;;;1.00;;
68438;SDS011;55421;51.600;5.718;2022-12-31T00:39:05;2.10;;;1.10;;
68438;SDS011;55421;51.600;5.718;2022-12-31T00:41:33;1.20;;;1.10;;
68438;SDS011;55421;51.600;5.718;2022-12-31T00:44:02;1.30;;;1.00;;
68438;SDS011;55421;51.600;5.718;2022-12-31T00:46:29;1.30;;;1.20;;
68438;SDS011;55421;51.600;5.718;2022-12-31T00:48:57;1.10;;;1.10;;
68438;SDS011;55421;51.600;5.718;2022-12-31T00:51:23;1.30;;;1.20;;
68438;SDS011;55421;51.600;5.718;2022-12-31T00:53:54;1.50;;;1.40;;
68438;SDS011;55421;51.600;5.718;2022-12-31T00:56:23;1.30;;;1.20;;
68438;SDS011;55421;51.600;5.718;2022-12-31T00:58:53;1.90;;;1.60;;
68438;SDS011;55421;51.600;5.718;2022-12-31T01:01:46;1.60;;;1.40;;
68438;SDS011;55421;51.600;5.718;2022-12-31T01:04:16;3.10;;;1.60;;
68438;SDS011;55421;51.600;5.718;2022-12-31T01:06:45;3.10;;;1.10;;
68438;SDS011;55421;51.600;5.718;2022-12-31T01:09:14;2.00;;;1.10;;
68438;SDS011;55421;51.600;5.718;2022-12-31T01:11:41;0.60;;;0.60;;
68438;SDS011;55421;51.600;5.718;2022-12-31T01:14:09;0.80;;;0.80;;
68438;SDS011;55421;51.600;5.718;2022-12-31T01:16:42;0.40;;;0.40;;
68438;SDS011;55421;51.600;5.718;2022-12-31T01:19:17;0.40;;;0.40;;
68438;SDS011;55421;51.600;5.718;2022-12-31T01:21:47;0.70;;;0.50;;
68438;SDS011;55421;51.600;5.718;2022-12-31T01:24:14;0.40;;;0.40;;
68438;SDS011;55421;51.600;5.718;2022-12-31T01:26:43;0.40;;;0.40;;
68438;SDS011;55421;51.600;5.718;2022-12-31T01:29:11;0.30;;;0.30;;
68438;SDS011;55421;51.600;5.718;2022-12-31T01:31:39;1.20;;;0.40;;
68438;SDS011;55421;51.600;5.718;2022-12-31T01:34:06;1.30;;;0.40;;
68438;SDS011;55421;51.600;5.718;2022-12-31T01:36:34;0.30;;;0.30;;
68438;SDS011;55421;51.600;5.718;2022-12-31T01:39:03;0.50;;;0.30;;
68438;SDS011;55421;51.600;5.718;2022-12-31T01:41:37;0.50;;;0.50;;
68438;SDS011;55421;51.600;5.718;2022-12-31T01:46:39;0.40;;;0.40;;
68438;SDS011;55421;51.600;5.718;2022-12-31T01:49:18;0.90;;;0.50;;
68438;SDS011;55421;51.600;5.718;2022-12-31T01:51:55;0.30;;;0.30;;
68438;SDS011;55421;51.600;5.718;2022-12-31T01:54:30;0.30;;;0.30;;
68438;SDS011;55421;51.600;5.718;2022-12-31T01:57:01;0.30;;;0.30;;
68438;SDS011;55421;51.600;5.718;2022-12-31T01:59:30;0.40;;;0.40;;
68438;SDS011;55421;51.600;5.718;2022-12-31T02:01:59;0.30;;;0.20;;
68438;SDS011;55421;51.600;5.718;2022-12-31T02:04:27;0.30;;;0.30;;
68438;SDS011;55421;51.600;5.718;2022-12-31T02:07:03;0.20;;;0.20;;
68438;SDS011;55421;51.600;5.718;2022-12-31T02:09:34;0.70;;;0.40;;
68438;SDS011;55421;51.600;5.718;2022-12-31T02:12:04;0.80;;;0.40;;
68438;SDS011;55421;51.600;5.718;2022-12-31T02:14:43;0.30;;;0.30;;
68438;SDS011;55421;51.600;5.718;2022-12-31T02:26:56;0.30;;;0.20;;
68438;SDS011;55421;51.600;5.718;2022-12-31T02:35:23;1.20;;;0.40;;
68438;SDS011;55421;51.600;5.718;2022-12-31T02:38:01;0.30;;;0.30;;
68438;SDS011;55421;51.600;5.718;2022-12-31T02:40:34;0.70;;;0.30;;
68438;SDS011;55421;51.600;5.718;2022-12-31T02:43:02;0.30;;;0.30;;
68438;SDS011;55421;51.600;5.718;2022-12-31T02:45:33;0.70;;;0.40;;
68438;SDS011;55421;51.600;5.718;2022-12-31T02:51:11;1.10;;;0.60;;
68438;SDS011;55421;51.600;5.718;2022-12-31T02:53:46;3.10;;;0.60;;
68438;SDS011;55421;51.600;5.718;2022-12-31T02:56:26;0.60;;;0.40;;
68438;SDS011;55421;51.600;5.718;2022-12-31T02:59:42;0.40;;;0.40;;
68438;SDS011;55421;51.600;5.718;2022-12-31T03:02:32;0.50;;;0.50;;
68438;SDS011;55421;51.600;5.718;2022-12-31T03:05:01;0.60;;;0.60;;
68438;SDS011;55421;51.600;5.718;2022-12-31T03:07:30;0.80;;;0.70;;
68438;SDS011;55421;51.600;5.718;2022-12-31T03:09:59;0.70;;;0.60;;
68438;SDS011;55421;51.600;5.718;2022-12-31T03:12:31;0.50;;;0.50;;
68438;SDS011;55421;51.600;5.718;2022-12-31T03:15:18;0.50;;;0.50;;
68438;SDS011;55421;51.600;5.718;2022-12-31T03:20:41;0.70;;;0.70;;
68438;SDS011;55421;51.600;5.718;2022-12-31T03:23:37;0.70;;;0.70;;
68438;SDS011;55421;51.600;5.718;2022-12-31T03:26:09;0.70;;;0.70;;
68438;SDS011;55421;51.600;5.718;2022-12-31T03:28:40;0.90;;;0.90;;
68438;SDS011;55421;51.600;5.718;2022-12-31T03:31:08;0.80;;;0.80;;
68438;SDS011;55421;51.600;5.718;2022-12-31T03:33:37;0.70;;;0.70;;
68438;SDS011;55421;51.600;5.718;2022-12-31T03:36:09;0.90;;;0.90;;
68438;SDS011;55421;51.600;5.718;2022-12-31T03:38:37;0.70;;;0.70;;
68438;SDS011;55421;51.600;5.718;2022-12-31T03:41:04;0.70;;;0.70;;
68438;SDS011;55421;51.600;5.718;2022-12-31T03:43:31;1.80;;;0.70;;
68438;SDS011;55421;51.600;5.718;2022-12-31T03:45:58;0.60;;;0.50;;
68438;SDS011;55421;51.600;5.718;2022-12-31T03:48:26;1.20;;;0.50;;
68438;SDS011;55421;51.600;5.718;2022-12-31T03:50:53;0.90;;;0.40;;
68438;SDS011;55421;51.600;5.718;2022-12-31T03:53:19;0.40;;;0.40;;
68438;SDS011;55421;51.600;5.718;2022-12-31T03:55:53;0.30;;;0.30;;
68438;SDS011;55421;51.600;5.718;2022-12-31T03:58:21;0.30;;;0.30;;
68438;SDS011;55421;51.600;5.718;2022-12-31T04:00:48;0.30;;;0.30;;
68438;SDS011;55421;51.600;5.718;2022-12-31T04:03:15;0.20;;;0.20;;
68438;SDS011;55421;51.600;5.718;2022-12-31T04:05:41;0.30;;;0.30;;
68438;SDS011;55421;51.600;5.718;2022-12-31T04:08:08;0.10;;;0.10;;
68438;SDS011;55421;51.600;5.718;2022-12-31T04:10:34;0.30;;;0.30;;
68438;SDS011;55421;51.600;5.718;2022-12-31T04:13:01;0.60;;;0.40;;
68438;SDS011;55421;51.600;5.718;2022-12-31T04:15:29;0.20;;;0.20;;
68438;SDS011;55421;51.600;5.718;2022-12-31T04:17:56;0.40;;;0.40;;
68438;SDS011;55421;51.600;5.718;2022-12-31T04:20:23;0.70;;;0.30;;
68438;SDS011;55421;51.600;5.718;2022-12-31T04:22:50;0.30;;;0.30;;
68438;SDS011;55421;51.600;5.718;2022-12-31T04:25:16;0.50;;;0.50;;
68438;SDS011;55421;51.600;5.718;2022-12-31T04:27:43;0.80;;;0.70;;
68438;SDS011;55421;51.600;5.718;2022-12-31T04:30:11;0.40;;;0.40;;
68438;SDS011;55421;51.600;5.718;2022-12-31T04:32:38;0.50;;;0.40;;
68438;SDS011;55421;51.600;5.718;2022-12-31T04:35:06;0.50;;;0.50;;
68438;SDS011;55421;51.600;5.718;2022-12-31T04:37:33;0.30;;;0.30;;
68438;SDS011;55421;51.600;5.718;2022-12-31T04:40:00;0.20;;;0.20;;
68438;SDS011;55421;51.600;5.718;2022-12-31T04:42:26;0.50;;;0.40;;
68438;SDS011;55421;51.600;5.718;2022-12-31T04:44:53;1.20;;;0.30;;
68438;SDS011;55421;51.600;5.718;2022-12-31T04:47:19;0.80;;;0.50;;
68438;SDS011;55421;51.600;5.718;2022-12-31T04:49:46;1.50;;;0.50;;
68438;SDS011;55421;51.600;5.718;2022-12-31T04:52:12;1.50;;;0.50;;
68438;SDS011;55421;51.600;5.718;2022-12-31T04:54:41;0.60;;;0.40;;
68438;SDS011;55421;51.600;5.718;2022-12-31T04:57:07;0.80;;;0.50;;
68438;SDS011;55421;51.600;5.718;2022-12-31T04:59:34;1.80;;;0.80;;
68438;SDS011;55421;51.600;5.718;2022-12-31T05:02:00;0.80;;;0.80;;
68438;SDS011;55421;51.600;5.718;2022-12-31T05:04:27;0.90;;;0.80;;
68438;SDS011;55421;51.600;5.718;2022-12-31T05:06:53;0.80;;;0.80;;
68438;SDS011;55421;51.600;5.718;2022-12-31T05:09:20;1.50;;;0.70;;
68438;SDS011;55421;51.600;5.718;2022-12-31T05:11:49;0.80;;;0.70;;
68438;SDS011;55421;51.600;5.718;2022-12-31T05:14:15;0.60;;;0.40;;
68438;SDS011;55421;51.600;5.718;2022-12-31T05:16:42;0.70;;;0.50;;
68438;SDS011;55421;51.600;5.718;2022-12-31T05:19:09;1.30;;;0.40;;
68438;SDS011;55421;51.600;5.718;2022-12-31T05:21:37;3.40;;;0.60;;
68438;SDS011;55421;51.600;5.718;2022-12-31T05:24:04;0.80;;;0.40;;
68438;SDS011;55421;51.600;5.718;2022-12-31T05:26:31;0.40;;;0.40;;
68438;SDS011;55421;51.600;5.718;2022-12-31T05:28:57;0.90;;;0.50;;
68438;SDS011;55421;51.600;5.718;2022-12-31T05:31:25;3.10;;;0.50;;
68438;SDS011;55421;51.600;5.718;2022-12-31T05:33:52;2.10;;;0.60;;
68438;SDS011;55421;51.600;5.718;2022-12-31T05:36:18;1.70;;;0.40;;
68438;SDS011;55421;51.600;5.718;2022-12-31T05:38:45;1.00;;;0.30;;
68438;SDS011;55421;51.600;5.718;2022-12-31T05:41:11;0.40;;;0.40;;
68438;SDS011;55421;51.600;5.718;2022-12-31T05:43:38;0.90;;;0.30;;
68438;SDS011;55421;51.600;5.718;2022-12-31T05:46:04;2.20;;;0.40;;
68438;SDS011;55421;51.600;5.718;2022-12-31T05:48:31;1.50;;;0.50;;
68438;SDS011;55421;51.600;5.718;2022-12-31T05:50:58;1.50;;;0.20;;
68438;SDS011;55421;51.600;5.718;2022-12-31T05:53:24;2.00;;;0.20;;
68438;SDS011;55421;51.600;5.718;2022-12-31T05:55:52;1.20;;;0.60;;
68438;SDS011;55421;51.600;5.718;2022-12-31T05:58:19;1.10;;;0.40;;
68438;SDS011;55421;51.600;5.718;2022-12-31T06:00:45;1.20;;;0.40;;
68438;SDS011;55421;51.600;5.718;2022-12-31T06:03:12;2.30;;;0.50;;
68438;SDS011;55421;51.600;5.718;2022-12-31T06:05:42;0.20;;;0.20;;
68438;SDS011;55421;51.600;5.718;2022-12-31T06:08:10;1.10;;;0.30;;
68438;SDS011;55421;51.600;5.718;2022-12-31T06:10:38;0.90;;;0.20;;
68438;SDS011;55421;51.600;5.718;2022-12-31T06:13:05;1.20;;;0.30;;
68438;SDS011;55421;51.600;5.718;2022-12-31T06:15:36;2.20;;;0.30;;
68438;SDS011;55421;51.600;5.718;2022-12-31T06:18:04;1.20;;;0.50;;
68438;SDS011;55421;51.600;5.718;2022-12-31T06:20:32;0.40;;;0.20;;
68438;SDS011;55421;51.600;5.718;2022-12-31T06:22:58;1.20;;;0.60;;
68438;SDS011;55421;51.600;5.718;2022-12-31T06:25:25;1.30;;;0.60;;
68438;SDS011;55421;51.600;5.718;2022-12-31T06:27:51;1.40;;;0.60;;
68438;SDS011;55421;51.600;5.718;2022-12-31T06:30:18;0.90;;;0.60;;
68438;SDS011;55421;51.600;5.718;2022-12-31T06:32:44;2.20;;;0.30;;
68438;SDS011;55421;51.600;5.718;2022-12-31T06:35:11;2.20;;;0.70;;
68438;SDS011;55421;51.600;5.718;2022-12-31T06:37:38;3.30;;;0.40;;
68438;SDS011;55421;51.600;5.718;2022-12-31T06:40:06;0.80;;;0.30;;
68438;SDS011;55421;51.600;5.718;2022-12-31T06:42:33;1.90;;;0.40;;
68438;SDS011;55421;51.600;5.718;2022-12-31T06:44:59;3.60;;;0.30;;
68438;SDS011;55421;51.600;5.718;2022-12-31T06:47:26;1.90;;;0.60;;
68438;SDS011;55421;51.600;5.718;2022-12-31T06:49:53;0.60;;;0.40;;
68438;SDS011;55421;51.600;5.718;2022-12-31T06:52:20;0.80;;;0.40;;
68438;SDS011;55421;51.600;5.718;2022-12-31T06:54:47;0.20;;;0.20;;
68438;SDS011;55421;51.600;5.718;2022-12-31T06:57:14;2.30;;;0.40;;
68438;SDS011;55421;51.600;5.718;2022-12-31T06:59:41;3.10;;;0.60;;
68438;SDS011;55421;51.600;5.718;2022-12-31T07:02:39;1.90;;;0.40;;
68438;SDS011;55421;51.600;5.718;2022-12-31T07:05:48;0.60;;;0.20;;
68438;SDS011;55421;51.600;5.718;2022-12-31T07:08:29;0.50;;;0.30;;
68438;SDS011;55421;51.600;5.718;2022-12-31T07:19:47;3.00;;;0.50;;
68438;SDS011;55421;51.600;5.718;2022-12-31T07:22:23;1.20;;;0.50;;
68438;SDS011;55421;51.600;5.718;2022-12-31T07:24:51;2.30;;;0.50;;
68438;SDS011;55421;51.600;5.718;2022-12-31T07:27:33;3.20;;;0.60;;
68438;SDS011;55421;51.600;5.718;2022-12-31T07:30:14;3.30;;;0.50;;
68438;SDS011;55421;51.600;5.718;2022-12-31T07:33:06;1.60;;;0.60;;
68438;SDS011;55421;51.600;5.718;2022-12-31T07:36:11;2.40;;;0.60;;
68438;SDS011;55421;51.600;5.718;2022-12-31T07:38:57;2.40;;;0.70;;
68438;SDS011;55421;51.600;5.718;2022-12-31T07:47:26;2.40;;;1.00;;
68438;SDS011;55421;51.600;5.718;2022-12-31T07:49:54;1.80;;;0.40;;
68438;SDS011;55421;51.600;5.718;2022-12-31T07:52:22;0.80;;;0.30;;
68438;SDS011;55421;51.600;5.718;2022-12-31T07:54:49;2.40;;;0.70;;
68438;SDS011;55421;51.600;5.718;2022-12-31T07:57:17;5.30;;;0.80;;
68438;SDS011;55421;51.600;5.718;2022-12-31T08:00:10;0.90;;;0.60;;
68438;SDS011;55421;51.600;5.718;2022-12-31T08:14:22;2.80;;;0.50;;
68438;SDS011;55421;51.600;5.718;2022-12-31T08:16:49;1.30;;;0.50;;
68438;SDS011;55421;51.600;5.718;2022-12-31T08:19:27;1.20;;;0.50;;
68438;SDS011;55421;51.600;5.718;2022-12-31T08:22:16;1.20;;;0.40;;
68438;SDS011;55421;51.600;5.718;2022-12-31T08:25:22;1.60;;;1.10;;
68438;SDS011;55421;51.600;5.718;2022-12-31T08:31:03;0.90;;;0.40;;
68438;SDS011;55421;51.600;5.718;2022-12-31T08:36:47;0.90;;;0.30;;
68438;SDS011;55421;51.600;5.718;2022-12-31T08:42:38;2.10;;;0.50;;
68438;SDS011;55421;51.600;5.718;2022-12-31T08:45:38;0.50;;;0.30;;
68438;SDS011;55421;51.600;5.718;2022-12-31T08:48:12;2.10;;;0.30;;
68438;SDS011;55421;51.600;5.718;2022-12-31T08:50:42;2.10;;;0.40;;
68438;SDS011;55421;51.600;5.718;2022-12-31T08:53:09;4.40;;;0.80;;
68438;SDS011;55421;51.600;5.718;2022-12-31T08:55:36;1.20;;;0.40;;
68438;SDS011;55421;51.600;5.718;2022-12-31T08:58:09;0.90;;;0.40;;
68438;SDS011;55421;51.600;5.718;2022-12-31T09:00:48;1.10;;;0.70;;
68438;SDS011;55421;51.600;5.718;2022-12-31T09:06:28;0.30;;;0.30;;
68438;SDS011;55421;51.600;5.718;2022-12-31T09:14:46;1.60;;;0.80;;
68438;SDS011;55421;51.600;5.718;2022-12-31T09:17:44;1.00;;;0.60;;
68438;SDS011;55421;51.600;5.718;2022-12-31T09:20:27;2.20;;;0.50;;
68438;SDS011;55421;51.600;5.718;2022-12-31T09:22:57;3.20;;;0.50;;
68438;SDS011;55421;51.600;5.718;2022-12-31T09:25:25;2.30;;;0.50;;
68438;SDS011;55421;51.600;5.718;2022-12-31T09:30:49;1.30;;;0.40;;
68438;SDS011;55421;51.600;5.718;2022-12-31T09:33:35;1.60;;;0.50;;
68438;SDS011;55421;51.600;5.718;2022-12-31T09:36:12;2.00;;;0.90;;
68438;SDS011;55421;51.600;5.718;2022-12-31T09:39:27;1.20;;;0.60;;
68438;SDS011;55421;51.600;5.718;2022-12-31T09:56:56;1.00;;;0.40;;
68438;SDS011;55421;51.600;5.718;2022-12-31T09:59:41;1.30;;;0.70;;
68438;SDS011;55421;51.600;5.718;2022-12-31T10:02:39;3.10;;;0.80;;
68438;SDS011;55421;51.600;5.718;2022-12-31T10:05:28;2.60;;;1.00;;
68438;SDS011;55421;51.600;5.718;2022-12-31T10:12:14;4.20;;;0.70;;
68438;SDS011;55421;51.600;5.718;2022-12-31T10:21:27;2.20;;;0.90;;
68438;SDS011;55421;51.600;5.718;2022-12-31T10:24:22;2.90;;;0.70;;
68438;SDS011;55421;51.600;5.718;2022-12-31T10:30:00;2.60;;;0.60;;
68438;SDS011;55421;51.600;5.718;2022-12-31T10:35:53;3.60;;;0.60;;
68438;SDS011;55421;51.600;5.718;2022-12-31T10:39:02;1.40;;;0.70;;
68438;SDS011;55421;51.600;5.718;2022-12-31T10:47:58;2.20;;;0.60;;
68438;SDS011;55421;51.600;5.718;2022-12-31T10:51:03;1.30;;;1.00;;
68438;SDS011;55421;51.600;5.718;2022-12-31T10:53:51;3.00;;;0.70;;
68438;SDS011;55421;51.600;5.718;2022-12-31T10:56:45;1.60;;;0.50;;
68438;SDS011;55421;51.600;5.718;2022-12-31T10:59:49;3.20;;;1.00;;
68438;SDS011;55421;51.600;5.718;2022-12-31T11:02:52;3.10;;;1.10;;
68438;SDS011;55421;51.600;5.718;2022-12-31T11:09:04;4.00;;;0.70;;
68438;SDS011;55421;51.600;5.718;2022-12-31T11:11:57;4.30;;;1.10;;
68438;SDS011;55421;51.600;5.718;2022-12-31T11:22:49;3.20;;;0.90;;
68438;SDS011;55421;51.600;5.718;2022-12-31T11:25:43;2.90;;;0.80;;
68438;SDS011;55421;51.600;5.718;2022-12-31T11:28:41;2.10;;;0.80;;
68438;SDS011;55421;51.600;5.718;2022-12-31T11:37:39;6.60;;;1.10;;
68438;SDS011;55421;51.600;5.718;2022-12-31T11:40:46;3.40;;;1.40;;
68438;SDS011;55421;51.600;5.718;2022-12-31T11:52:32;1.50;;;0.90;;
68438;SDS011;55421;51.600;5.718;2022-12-31T11:58:18;2.00;;;1.00;;
68438;SDS011;55421;51.600;5.718;2022-12-31T12:00:53;3.80;;;1.40;;
68438;SDS011;55421;51.600;5.718;2022-12-31T12:03:22;3.70;;;0.90;;
68438;SDS011;55421;51.600;5.718;2022-12-31T12:05:49;3.70;;;0.90;;
68438;SDS011;55421;51.600;5.718;2022-12-31T12:08:17;2.30;;;0.80;;
68438;SDS011;55421;51.600;5.718;2022-12-31T12:10:47;6.70;;;1.50;;
68438;SDS011;55421;51.600;5.718;2022-12-31T12:13:23;1.80;;;0.80;;
68438;SDS011;55421;51.600;5.718;2022-12-31T12:15:54;1.70;;;1.10;;
68438;SDS011;55421;51.600;5.718;2022-12-31T12:18:28;2.30;;;1.10;;
68438;SDS011;55421;51.600;5.718;2022-12-31T12:21:05;2.20;;;0.70;;
68438;SDS011;55421;51.600;5.718;2022-12-31T12:23:57;2.70;;;0.70;;
68438;SDS011;55421;51.600;5.718;2022-12-31T12:26:43;2.70;;;1.00;;
68438;SDS011;55421;51.600;5.718;2022-12-31T12:31:54;5.40;;;1.00;;
68438;SDS011;55421;51.600;5.718;2022-12-31T12:34:27;1.70;;;0.90;;
68438;SDS011;55421;51.600;5.718;2022-12-31T12:36:58;6.20;;;0.90;;
68438;SDS011;55421;51.600;5.718;2022-12-31T12:39:28;3.00;;;1.10;;
68438;SDS011;55421;51.600;5.718;2022-12-31T12:42:06;2.10;;;1.00;;
68438;SDS011;55421;51.600;5.718;2022-12-31T12:44:37;2.80;;;0.80;;
68438;SDS011;55421;51.600;5.718;2022-12-31T12:47:07;1.90;;;0.90;;
68438;SDS011;55421;51.600;5.718;2022-12-31T12:49:43;3.20;;;0.80;;
68438;SDS011;55421;51.600;5.718;2022-12-31T12:52:40;4.70;;;1.10;;
68438;SDS011;55421;51.600;5.718;2022-12-31T12:55:19;2.70;;;0.90;;
68438;SDS011;55421;51.600;5.718;2022-12-31T13:01:21;3.00;;;0.80;;
68438;SDS011;55421;51.600;5.718;2022-12-31T13:07:15;4.70;;;0.90;;
68438;SDS011;55421;51.600;5.718;2022-12-31T13:10:04;4.00;;;1.20;;
68438;SDS011;55421;51.600;5.718;2022-12-31T13:12:53;5.50;;;1.00;;
68438;SDS011;55421;51.600;5.718;2022-12-31T13:24:17;2.80;;;1.00;;
68438;SDS011;55421;51.600;5.718;2022-12-31T13:30:14;3.10;;;1.10;;
68438;SDS011;55421;51.600;5.718;2022-12-31T13:32:47;3.50;;;1.10;;
68438;SDS011;55421;51.600;5.718;2022-12-31T13:35:28;4.60;;;1.10;;
68438;SDS011;55421;51.600;5.718;2022-12-31T13:38:16;1.70;;;0.80;;
68438;SDS011;55421;51.600;5.718;2022-12-31T13:43:40;3.70;;;1.10;;
68438;SDS011;55421;51.600;5.718;2022-12-31T13:46:34;3.30;;;1.40;;
68438;SDS011;55421;51.600;5.718;2022-12-31T13:49:15;4.20;;;1.00;;
68438;SDS011;55421;51.600;5.718;2022-12-31T13:52:21;2.40;;;0.80;;
68438;SDS011;55421;51.600;5.718;2022-12-31T13:55:00;4.10;;;1.30;;
68438;SDS011;55421;51.600;5.718;2022-12-31T13:57:52;2.70;;;1.00;;
68438;SDS011;55421;51.600;5.718;2022-12-31T14:00:32;6.90;;;1.10;;
68438;SDS011;55421;51.600;5.718;2022-12-31T14:03:13;3.60;;;1.20;;
68438;SDS011;55421;51.600;5.718;2022-12-31T14:05:58;4.30;;;1.40;;
68438;SDS011;55421;51.600;5.718;2022-12-31T14:08:30;5.50;;;1.40;;
68438;SDS011;55421;51.600;5.718;2022-12-31T14:14:19;6.60;;;1.30;;
68438;SDS011;55421;51.600;5.718;2022-12-31T14:17:02;4.40;;;1.20;;
68438;SDS011;55421;51.600;5.718;2022-12-31T14:25:45;7.50;;;1.40;;
68438;SDS011;55421;51.600;5.718;2022-12-31T14:28:30;7.30;;;1.60;;
68438;SDS011;55421;51.600;5.718;2022-12-31T14:31:23;3.70;;;1.30;;
68438;SDS011;55421;51.600;5.718;2022-12-31T14:34:12;7.20;;;1.70;;
68438;SDS011;55421;51.600;5.718;2022-12-31T14:37:32;11.70;;;2.50;;
68438;SDS011;55421;51.600;5.718;2022-12-31T14:40:30;5.10;;;1.30;;
68438;SDS011;55421;51.600;5.718;2022-12-31T14:43:27;7.40;;;1.30;;
68438;SDS011;55421;51.600;5.718;2022-12-31T14:50:14;4.30;;;1.40;;
68438;SDS011;55421;51.600;5.718;2022-12-31T14:52:27;4.70;;;1.60;;
68438;SDS011;55421;51.600;5.718;2022-12-31T14:55:01;9.40;;;1.90;;
68438;SDS011;55421;51.600;5.718;2022-12-31T14:57:45;3.70;;;1.50;;
68438;SDS011;55421;51.600;5.718;2022-12-31T15:00:36;6.80;;;2.20;;
68438;SDS011;55421;51.600;5.718;2022-12-31T15:03:22;1.40;;;1.10;;
68438;SDS011;55421;51.600;5.718;2022-12-31T15:05:53;6.60;;;1.80;;
68438;SDS011;55421;51.600;5.718;2022-12-31T15:21:26;6.20;;;1.70;;
68438;SDS011;55421;51.600;5.718;2022-12-31T15:23:54;7.30;;;1.90;;
68438;SDS011;55421;51.600;5.718;2022-12-31T15:26:26;3.30;;;1.60;;
68438;SDS011;55421;51.600;5.718;2022-12-31T15:29:02;3.70;;;1.90;;
68438;SDS011;55421;51.600;5.718;2022-12-31T15:31:33;5.00;;;2.20;;
68438;SDS011;55421;51.600;5.718;2022-12-31T15:34:02;4.50;;;2.00;;
68438;SDS011;55421;51.600;5.718;2022-12-31T15:36:58;5.70;;;1.80;;
68438;SDS011;55421;51.600;5.718;2022-12-31T15:39:37;9.50;;;1.80;;
68438;SDS011;55421;51.600;5.718;2022-12-31T15:42:32;7.50;;;2.00;;
68438;SDS011;55421;51.600;5.718;2022-12-31T15:45:06;6.90;;;1.90;;
68438;SDS011;55421;51.600;5.718;2022-12-31T15:47:42;6.20;;;1.60;;
68438;SDS011;55421;51.600;5.718;2022-12-31T15:50:20;6.00;;;2.10;;
68438;SDS011;55421;51.600;5.718;2022-12-31T15:52:51;4.40;;;1.90;;
68438;SDS011;55421;51.600;5.718;2022-12-31T15:55:27;4.90;;;2.10;;
68438;SDS011;55421;51.600;5.718;2022-12-31T15:58:02;4.50;;;1.80;;
68438;SDS011;55421;51.600;5.718;2022-12-31T16:00:45;7.10;;;2.30;;
68438;SDS011;55421;51.600;5.718;2022-12-31T16:03:22;9.90;;;3.10;;
68438;SDS011;55421;51.600;5.718;2022-12-31T16:05:53;5.00;;;2.00;;
68438;SDS011;55421;51.600;5.718;2022-12-31T16:08:28;4.40;;;1.90;;
68438;SDS011;55421;51.600;5.718;2022-12-31T16:10:59;3.60;;;1.70;;
68438;SDS011;55421;51.600;5.718;2022-12-31T16:13:29;7.40;;;2.50;;
68438;SDS011;55421;51.600;5.718;2022-12-31T16:16:04;6.60;;;2.50;;
68438;SDS011;55421;51.600;5.718;2022-12-31T16:23:59;4.00;;;2.50;;
68438;SDS011;55421;51.600;5.718;2022-12-31T16:26:31;6.40;;;2.80;;
68438;SDS011;55421;51.600;5.718;2022-12-31T16:29:03;4.30;;;2.80;;
68438;SDS011;55421;51.600;5.718;2022-12-31T16:31:30;9.10;;;3.90;;
68438;SDS011;55421;51.600;5.718;2022-12-31T16:34:11;4.70;;;3.00;;
68438;SDS011;55421;51.600;5.718;2022-12-31T16:36:41;9.40;;;2.80;;
68438;SDS011;55421;51.600;5.718;2022-12-31T16:39:25;3.20;;;2.30;;
68438;SDS011;55421;51.600;5.718;2022-12-31T16:42:12;8.50;;;3.30;;
68438;SDS011;55421;51.600;5.718;2022-12-31T16:44:49;5.00;;;3.30;;
68438;SDS011;55421;51.600;5.718;2022-12-31T16:47:21;8.10;;;3.40;;
68438;SDS011;55421;51.600;5.718;2022-12-31T16:50:15;9.60;;;3.70;;
68438;SDS011;55421;51.600;5.718;2022-12-31T16:52:48;6.00;;;3.90;;
68438;SDS011;55421;51.600;5.718;2022-12-31T16:55:20;6.60;;;3.60;;
68438;SDS011;55421;51.600;5.718;2022-12-31T16:57:52;6.20;;;3.80;;
68438;SDS011;55421;51.600;5.718;2022-12-31T17:00:24;7.00;;;3.20;;
68438;SDS011;55421;51.600;5.718;2022-12-31T17:03:06;7.90;;;3.40;;
68438;SDS011;55421;51.600;5.718;2022-12-31T17:16:52;5.90;;;2.90;;
68438;SDS011;55421;51.600;5.718;2022-12-31T17:19:44;12.20;;;3.30;;
68438;SDS011;55421;51.600;5.718;2022-12-31T17:22:23;6.10;;;3.60;;
68438;SDS011;55421;51.600;5.718;2022-12-31T17:24:59;8.10;;;4.40;;
68438;SDS011;55421;51.600;5.718;2022-12-31T17:27:29;5.80;;;3.40;;
68438;SDS011;55421;51.600;5.718;2022-12-31T17:35:55;10.20;;;4.50;;
68438;SDS011;55421;51.600;5.718;2022-12-31T17:38:42;4.70;;;3.20;;
68438;SDS011;55421;51.600;5.718;2022-12-31T17:41:34;5.00;;;3.30;;
68438;SDS011;55421;51.600;5.718;2022-12-31T17:44:03;7.90;;;3.40;;
68438;SDS011;55421;51.600;5.718;2022-12-31T17:46:30;6.70;;;2.40;;
68438;SDS011;55421;51.600;5.718;2022-12-31T17:51:33;7.40;;;2.70;;
68438;SDS011;55421;51.600;5.718;2022-12-31T17:53:59;8.90;;;3.30;;
68438;SDS011;55421;51.600;5.718;2022-12-31T17:56:26;7.20;;;2.80;;
68438;SDS011;55421;51.600;5.718;2022-12-31T17:58:53;8.90;;;2.90;;
68438;SDS011;55421;51.600;5.718;2022-12-31T18:01:21;5.10;;;2.40;;
68438;SDS011;55421;51.600;5.718;2022-12-31T18:03:48;5.70;;;2.40;;
68438;SDS011;55421;51.600;5.718;2022-12-31T18:06:16;6.00;;;2.30;;
68438;SDS011;55421;51.600;5.718;2022-12-31T18:08:44;6.80;;;2.00;;
68438;SDS011;55421;51.600;5.718;2022-12-31T18:11:15;9.30;;;2.80;;
68438;SDS011;55421;51.600;5.718;2022-12-31T18:13:44;5.80;;;2.50;;
68438;SDS011;55421;51.600;5.718;2022-12-31T18:16:11;6.10;;;2.40;;
68438;SDS011;55421;51.600;5.718;2022-12-31T18:18:39;9.30;;;2.80;;
68438;SDS011;55421;51.600;5.718;2022-12-31T18:21:14;4.60;;;2.40;;
68438;SDS011;55421;51.600;5.718;2022-12-31T18:23:46;5.40;;;2.50;;
68438;SDS011;55421;51.600;5.718;2022-12-31T18:26:16;6.40;;;2.00;;
68438;SDS011;55421;51.600;5.718;2022-12-31T18:28:44;5.10;;;2.30;;
68438;SDS011;55421;51.600;5.718;2022-12-31T18:31:18;8.10;;;2.60;;
68438;SDS011;55421;51.600;5.718;2022-12-31T18:33:47;5.30;;;2.40;;
68438;SDS011;55421;51.600;5.718;2022-12-31T18:36:16;5.40;;;2.30;;
68438;SDS011;55421;51.600;5.718;2022-12-31T18:38:44;6.30;;;2.70;;
68438;SDS011;55421;51.600;5.718;2022-12-31T18:41:16;4.40;;;2.40;;
68438;SDS011;55421;51.600;5.718;2022-12-31T18:43:45;3.90;;;2.00;;
68438;SDS011;55421;51.600;5.718;2022-12-31T18:46:14;6.70;;;2.50;;
68438;SDS011;55421;51.600;5.718;2022-12-31T18:48:43;8.30;;;2.60;;
68438;SDS011;55421;51.600;5.718;2022-12-31T18:51:15;8.30;;;2.70;;
68438;SDS011;55421;51.600;5.718;2022-12-31T18:53:45;6.10;;;2.80;;
68438;SDS011;55421;51.600;5.718;2022-12-31T18:56:18;8.40;;;3.10;;
68438;SDS011;55421;51.600;5.718;2022-12-31T18:58:45;4.50;;;2.30;;
68438;SDS011;55421;51.600;5.718;2022-12-31T19:01:36;8.70;;;2.80;;
68438;SDS011;55421;51.600;5.718;2022-12-31T19:04:15;3.20;;;2.00;;
68438;SDS011;55421;51.600;5.718;2022-12-31T19:06:48;6.70;;;2.50;;
68438;SDS011;55421;51.600;5.718;2022-12-31T19:09:15;5.40;;;1.60;;